Joan's Ark — WDF6566 — position and weather

sailwx.info

Track history (hours):
 
Tides and Currents Weather Stations Pressure Air Temp Water Temp Dewpoint Dewpoint Depression Visibility Wind Speed Wind Dir Waves Ship Positions

Joan's Ark

Owner: Eastwinds Company, Virginia Beach, VA. More information available from US FCC via Universal Licensing System and Coast Guard Vessel Documentation Center.

Last reported at 2015-Apr-28 11:33 UTC. Time now 2015-Jul-03 22:07 UTC.
Position N 34°48' W 076°41'.
Warning: this ship's position is months out of date.

Length 35 m; draft 1.8 m.

Type: Passenger vessel. MMSI: 366913000.

Date/timePositionNaut miles runAvg speedWind from/ knotsBaromVisibWave heightAir tempDewpointWater temp
2015-Apr-28 11:33N 34°48' W 076°41'5 5.1
2015-Apr-28 10:33N 34°43' W 076°40'0 0.0
2015-Apr-28 09:33N 34°43' W 076°40'0 0.0
2015-Apr-28 08:33N 34°43' W 076°40'0 0.0
2015-Apr-28 07:33N 34°43' W 076°40'0 0.0
2015-Apr-28 06:33N 34°43' W 076°40'0 0.0
2015-Apr-28 05:33N 34°43' W 076°40'0 0.0
2015-Apr-28 04:33N 34°43' W 076°40'0 0.0
2015-Apr-28 03:33N 34°43' W 076°40'0 0.0
2015-Apr-28 02:33N 34°43' W 076°40'0 0.0
2015-Apr-28 01:33N 34°43' W 076°40'0 0.0
2015-Apr-28 00:33N 34°43' W 076°40'0 0.0
2015-Apr-27 23:33N 34°43' W 076°40'  
2015-Apr-25 12:33N 26°12' W 079°60'9 9.0
2015-Apr-25 11:33N 26°07' W 080°08'2 1.8
2015-Apr-25 10:33N 26°06' W 080°10'0 0.0
2015-Apr-25 09:31N 26°06' W 080°10'0 0.0
2015-Apr-25 08:32N 26°06' W 080°10'0 0.0
2015-Apr-25 07:28N 26°06' W 080°10'0 0.0
2015-Apr-25 06:33N 26°06' W 080°10'0 0.0
2015-Apr-25 05:33N 26°06' W 080°10'0 0.0
2015-Apr-25 04:33N 26°06' W 080°10'0 0.0
2015-Apr-25 03:32N 26°06' W 080°10'0 0.0
2015-Apr-25 02:32N 26°06' W 080°10'0 0.0
2015-Apr-25 01:33N 26°06' W 080°10'0 0.0
2015-Apr-25 00:33N 26°06' W 080°10'0 0.0
2015-Apr-24 23:33N 26°06' W 080°10'0 0.0
2015-Apr-24 22:33N 26°06' W 080°10'0 0.0
2015-Apr-24 21:33N 26°06' W 080°10'0 0.0
2015-Apr-24 20:33N 26°06' W 080°10'0 0.0
2015-Apr-24 19:33N 26°06' W 080°10'0 0.0
2015-Apr-24 18:32N 26°06' W 080°10'0 0.0
2015-Apr-24 17:33N 26°06' W 080°10'0 0.0
2015-Apr-24 16:33N 26°06' W 080°10'0 0.0
2015-Apr-24 15:33N 26°06' W 080°10'0 0.0
2015-Apr-24 14:33N 26°06' W 080°10'0 0.0
2015-Apr-24 13:33N 26°06' W 080°10'0 0.0
2015-Apr-24 12:33N 26°06' W 080°10'0 0.0
2015-Apr-24 11:33N 26°06' W 080°10'0 0.0
2015-Apr-24 10:33N 26°06' W 080°10'0 0.0
2015-Apr-24 09:32N 26°06' W 080°10'0 0.0
2015-Apr-24 08:33N 26°06' W 080°10'0 0.0
2015-Apr-24 07:33N 26°06' W 080°10'0 0.0
2015-Apr-24 06:32N 26°06' W 080°10'0 0.0
2015-Apr-24 05:32N 26°06' W 080°10'0 0.0
2015-Apr-24 04:30N 26°06' W 080°10'0 0.0
2015-Apr-24 03:33N 26°06' W 080°10'0 0.0
2015-Apr-24 02:33N 26°06' W 080°10'0 0.0
2015-Apr-24 01:32N 26°06' W 080°10'0 0.0
2015-Apr-24 00:33N 26°06' W 080°10'0 0.0
2015-Apr-23 23:33N 26°06' W 080°10'0 0.0
2015-Apr-23 22:33N 26°06' W 080°10'0 0.0
2015-Apr-23 21:33N 26°06' W 080°10'0 0.0
2015-Apr-23 20:33N 26°06' W 080°10'0 0.0
2015-Apr-23 19:31N 26°06' W 080°10'0 0.0
2015-Apr-23 18:28N 26°06' W 080°10'0 0.0
2015-Apr-23 17:33N 26°06' W 080°10'2 2.0
2015-Apr-23 16:33N 26°07' W 080°08'3 3.2
2015-Apr-23 15:33N 26°06' W 080°05'4 4.4
2015-Apr-23 14:34N 26°07' W 080°10'1 0.7
2015-Apr-23 13:33N 26°06' W 080°10'0 0.0
2015-Apr-23 09:14N 26°06' W 080°10'0 0.0
2015-Apr-23 08:10N 26°06' W 080°10'0 0.0
2015-Apr-23 07:32N 26°06' W 080°10'0 0.0
2015-Apr-23 06:33N 26°06' W 080°10'0 0.0
2015-Apr-23 05:32N 26°06' W 080°10'0 0.0
2015-Apr-23 04:32N 26°06' W 080°10'0 0.0
2015-Apr-23 03:31N 26°06' W 080°10'0 0.0
2015-Apr-23 02:29N 26°06' W 080°10'0 0.0
2015-Apr-23 01:23N 26°06' W 080°10'0 0.0
2015-Apr-22 22:28N 26°06' W 080°10'0 0.0
2015-Apr-22 21:32N 26°06' W 080°10'0 0.0
2015-Apr-22 20:28N 26°06' W 080°10'0 0.0
2015-Apr-22 19:33N 26°06' W 080°10'0 0.0
2015-Apr-22 18:33N 26°06' W 080°10'0 0.0
2015-Apr-22 17:32N 26°06' W 080°10'0 0.0
2015-Apr-22 16:33N 26°06' W 080°10'0 0.0
2015-Apr-22 15:32N 26°06' W 080°10'0 0.0
2015-Apr-22 14:33N 26°06' W 080°10'0 0.0
2015-Apr-22 13:33N 26°06' W 080°10'0 0.0
2015-Apr-22 12:32N 26°06' W 080°10'0 0.0
2015-Apr-22 05:32N 26°06' W 080°10'0 0.0
2015-Apr-22 04:33N 26°06' W 080°10'0 0.0
2015-Apr-22 03:29N 26°06' W 080°10'0 0.0
2015-Apr-22 02:29N 26°06' W 080°10'0 0.0
2015-Apr-22 01:26N 26°06' W 080°10'0 0.0
2015-Apr-21 18:20N 26°06' W 080°10'0 0.0
2015-Apr-21 17:26N 26°06' W 080°10'0 0.0
2015-Apr-21 16:33N 26°06' W 080°10'0 0.0
2015-Apr-21 15:33N 26°06' W 080°10'0 0.0
2015-Apr-21 14:33N 26°06' W 080°10'0 0.0
2015-Apr-21 13:33N 26°06' W 080°10'0 0.0
2015-Apr-21 12:33N 26°06' W 080°10'0 0.0
2015-Apr-21 11:27N 26°06' W 080°10'0 0.0
2015-Apr-21 10:28N 26°06' W 080°10'0 0.0
2015-Apr-21 09:33N 26°06' W 080°10'0 0.0
2015-Apr-21 08:28N 26°06' W 080°10'0 0.0
2015-Apr-21 07:31N 26°06' W 080°10'0 0.0
2015-Apr-21 06:34N 26°06' W 080°10'0 0.0
2015-Apr-21 05:34N 26°06' W 080°10'0 0.0
2015-Apr-21 04:33N 26°06' W 080°10'0 0.0
2015-Apr-21 03:33N 26°06' W 080°10'0 0.0
2015-Apr-21 02:33N 26°06' W 080°10'0 0.0
2015-Apr-21 01:33N 26°06' W 080°10'0 0.0
2015-Apr-21 00:33N 26°06' W 080°10'0 0.0
2015-Apr-20 23:33N 26°06' W 080°10'0 0.0
2015-Apr-20 22:33N 26°06' W 080°10'0 0.0
2015-Apr-20 20:30N 26°06' W 080°10'0 0.0
2015-Apr-20 19:33N 26°06' W 080°10'0 0.0
2015-Apr-20 18:33N 26°06' W 080°10'0 0.0
2015-Apr-20 17:34N 26°06' W 080°10'0 0.0
2015-Apr-20 16:34N 26°06' W 080°10'0 0.0
2015-Apr-20 15:33N 26°06' W 080°10'  
Track history (hours):
 
Tides and Currents Weather Stations Pressure Air Temp Water Temp Dewpoint Dewpoint Depression Visibility Wind Speed Wind Dir Waves Ship Positions

Joan's Ark

Owner: Eastwinds Company, Virginia Beach, VA. More information available from US FCC via Universal Licensing System and Coast Guard Vessel Documentation Center.

Last reported at 2015-Apr-28 11:33 UTC. Time now 2015-Jul-03 22:07 UTC.
Position N 34°48' W 076°41'.
Warning: this ship's position is months out of date.

Length 35 m; draft 1.8 m.

Type: Passenger vessel. MMSI: 366913000.

Date/timePositionNaut miles runAvg speedWind from/ knotsBaromVisibWave heightAir tempDewpointWater temp
2015-Apr-28 11:33N 34°48' W 076°41'5 5.1
2015-Apr-28 10:33N 34°43' W 076°40'0 0.0
2015-Apr-28 09:33N 34°43' W 076°40'0 0.0
2015-Apr-28 08:33N 34°43' W 076°40'0 0.0
2015-Apr-28 07:33N 34°43' W 076°40'0 0.0
2015-Apr-28 06:33N 34°43' W 076°40'0 0.0
2015-Apr-28 05:33N 34°43' W 076°40'0 0.0
2015-Apr-28 04:33N 34°43' W 076°40'0 0.0
2015-Apr-28 03:33N 34°43' W 076°40'0 0.0
2015-Apr-28 02:33N 34°43' W 076°40'0 0.0
2015-Apr-28 01:33N 34°43' W 076°40'0 0.0
2015-Apr-28 00:33N 34°43' W 076°40'0 0.0
2015-Apr-27 23:33N 34°43' W 076°40'  
2015-Apr-25 12:33N 26°12' W 079°60'9 9.0
2015-Apr-25 11:33N 26°07' W 080°08'2 1.8
2015-Apr-25 10:33N 26°06' W 080°10'0 0.0
2015-Apr-25 09:31N 26°06' W 080°10'0 0.0
2015-Apr-25 08:32N 26°06' W 080°10'0 0.0
2015-Apr-25 07:28N 26°06' W 080°10'0 0.0
2015-Apr-25 06:33N 26°06' W 080°10'0 0.0
2015-Apr-25 05:33N 26°06' W 080°10'0 0.0
2015-Apr-25 04:33N 26°06' W 080°10'0 0.0
2015-Apr-25 03:32N 26°06' W 080°10'0 0.0
2015-Apr-25 02:32N 26°06' W 080°10'0 0.0
2015-Apr-25 01:33N 26°06' W 080°10'0 0.0
2015-Apr-25 00:33N 26°06' W 080°10'0 0.0
2015-Apr-24 23:33N 26°06' W 080°10'0 0.0
2015-Apr-24 22:33N 26°06' W 080°10'0 0.0
2015-Apr-24 21:33N 26°06' W 080°10'0 0.0
2015-Apr-24 20:33N 26°06' W 080°10'0 0.0
2015-Apr-24 19:33N 26°06' W 080°10'0 0.0
2015-Apr-24 18:32N 26°06' W 080°10'0 0.0
2015-Apr-24 17:33N 26°06' W 080°10'0 0.0
2015-Apr-24 16:33N 26°06' W 080°10'0 0.0
2015-Apr-24 15:33N 26°06' W 080°10'0 0.0
2015-Apr-24 14:33N 26°06' W 080°10'0 0.0
2015-Apr-24 13:33N 26°06' W 080°10'0 0.0
2015-Apr-24 12:33N 26°06' W 080°10'0 0.0
2015-Apr-24 11:33N 26°06' W 080°10'0 0.0
2015-Apr-24 10:33N 26°06' W 080°10'0 0.0
2015-Apr-24 09:32N 26°06' W 080°10'0 0.0
2015-Apr-24 08:33N 26°06' W 080°10'0 0.0
2015-Apr-24 07:33N 26°06' W 080°10'0 0.0
2015-Apr-24 06:32N 26°06' W 080°10'0 0.0
2015-Apr-24 05:32N 26°06' W 080°10'0 0.0
2015-Apr-24 04:30N 26°06' W 080°10'0 0.0
2015-Apr-24 03:33N 26°06' W 080°10'0 0.0
2015-Apr-24 02:33N 26°06' W 080°10'0 0.0
2015-Apr-24 01:32N 26°06' W 080°10'0 0.0
2015-Apr-24 00:33N 26°06' W 080°10'0 0.0
2015-Apr-23 23:33N 26°06' W 080°10'0 0.0
2015-Apr-23 22:33N 26°06' W 080°10'0 0.0
2015-Apr-23 21:33N 26°06' W 080°10'0 0.0
2015-Apr-23 20:33N 26°06' W 080°10'0 0.0
2015-Apr-23 19:31N 26°06' W 080°10'0 0.0
2015-Apr-23 18:28N 26°06' W 080°10'0 0.0
2015-Apr-23 17:33N 26°06' W 080°10'2 2.0
2015-Apr-23 16:33N 26°07' W 080°08'3 3.2
2015-Apr-23 15:33N 26°06' W 080°05'4 4.4
2015-Apr-23 14:34N 26°07' W 080°10'1 0.7
2015-Apr-23 13:33N 26°06' W 080°10'0 0.0
2015-Apr-23 09:14N 26°06' W 080°10'0 0.0
2015-Apr-23 08:10N 26°06' W 080°10'0 0.0
2015-Apr-23 07:32N 26°06' W 080°10'0 0.0
2015-Apr-23 06:33N 26°06' W 080°10'0 0.0
2015-Apr-23 05:32N 26°06' W 080°10'0 0.0
2015-Apr-23 04:32N 26°06' W 080°10'0 0.0
2015-Apr-23 03:31N 26°06' W 080°10'0 0.0
2015-Apr-23 02:29N 26°06' W 080°10'0 0.0
2015-Apr-23 01:23N 26°06' W 080°10'0 0.0
2015-Apr-22 22:28N 26°06' W 080°10'0 0.0
2015-Apr-22 21:32N 26°06' W 080°10'0 0.0
2015-Apr-22 20:28N 26°06' W 080°10'0 0.0
2015-Apr-22 19:33N 26°06' W 080°10'0 0.0
2015-Apr-22 18:33N 26°06' W 080°10'0 0.0
2015-Apr-22 17:32N 26°06' W 080°10'0 0.0
2015-Apr-22 16:33N 26°06' W 080°10'0 0.0
2015-Apr-22 15:32N 26°06' W 080°10'0 0.0
2015-Apr-22 14:33N 26°06' W 080°10'0 0.0
2015-Apr-22 13:33N 26°06' W 080°10'0 0.0
2015-Apr-22 12:32N 26°06' W 080°10'0 0.0
2015-Apr-22 05:32N 26°06' W 080°10'0 0.0
2015-Apr-22 04:33N 26°06' W 080°10'0 0.0
2015-Apr-22 03:29N 26°06' W 080°10'0 0.0
2015-Apr-22 02:29N 26°06' W 080°10'0 0.0
2015-Apr-22 01:26N 26°06' W 080°10'0 0.0
2015-Apr-21 18:20N 26°06' W 080°10'0 0.0
2015-Apr-21 17:26N 26°06' W 080°10'0 0.0
2015-Apr-21 16:33N 26°06' W 080°10'0 0.0
2015-Apr-21 15:33N 26°06' W 080°10'0 0.0
2015-Apr-21 14:33N 26°06' W 080°10'0 0.0
2015-Apr-21 13:33N 26°06' W 080°10'0 0.0
2015-Apr-21 12:33N 26°06' W 080°10'0 0.0
2015-Apr-21 11:27N 26°06' W 080°10'0 0.0
2015-Apr-21 10:28N 26°06' W 080°10'0 0.0
2015-Apr-21 09:33N 26°06' W 080°10'0 0.0
2015-Apr-21 08:28N 26°06' W 080°10'0 0.0
2015-Apr-21 07:31N 26°06' W 080°10'0 0.0
2015-Apr-21 06:34N 26°06' W 080°10'0 0.0
2015-Apr-21 05:34N 26°06' W 080°10'0 0.0
2015-Apr-21 04:33N 26°06' W 080°10'0 0.0
2015-Apr-21 03:33N 26°06' W 080°10'0 0.0
2015-Apr-21 02:33N 26°06' W 080°10'0 0.0
2015-Apr-21 01:33N 26°06' W 080°10'0 0.0
2015-Apr-21 00:33N 26°06' W 080°10'0 0.0
2015-Apr-20 23:33N 26°06' W 080°10'0 0.0
2015-Apr-20 22:33N 26°06' W 080°10'0 0.0
2015-Apr-20 20:30N 26°06' W 080°10'0 0.0
2015-Apr-20 19:33N 26°06' W 080°10'0 0.0
2015-Apr-20 18:33N 26°06' W 080°10'0 0.0
2015-Apr-20 17:34N 26°06' W 080°10'0 0.0
2015-Apr-20 16:34N 26°06' W 080°10'0 0.0
2015-Apr-20 15:33N 26°06' W 080°10'  

Dump ship's entire track history